createdAt,value
2019-05-25T00:00:17.398Z,0.00
2019-05-25T00:01:17.393Z,0.00
2019-05-25T00:02:17.384Z,0.00
2019-05-25T00:03:17.378Z,0.00
2019-05-25T00:04:17.393Z,0.00
2019-05-25T00:05:17.389Z,0.00
2019-05-25T00:06:17.381Z,0.00
2019-05-25T00:07:17.374Z,0.00
2019-05-25T00:08:17.367Z,0.00
2019-05-25T00:09:17.368Z,0.00
2019-05-25T00:10:17.353Z,0.00
2019-05-25T00:11:17.345Z,0.00
2019-05-25T00:12:17.340Z,0.00
2019-05-25T00:13:17.337Z,0.00
2019-05-25T00:14:17.327Z,0.00
2019-05-25T00:15:17.321Z,0.00
2019-05-25T00:16:17.313Z,0.00
2019-05-25T00:17:17.334Z,0.00
2019-05-25T00:18:17.301Z,0.00
2019-05-25T00:19:17.314Z,0.00
2019-05-25T00:20:17.306Z,0.00
2019-05-25T00:21:17.299Z,0.00
2019-05-25T00:22:17.291Z,0.00
2019-05-25T00:23:17.289Z,0.00
2019-05-25T00:24:17.284Z,0.00
2019-05-25T00:25:17.276Z,0.00
2019-05-25T00:26:17.270Z,0.00
2019-05-25T00:27:17.272Z,0.00
2019-05-25T00:28:17.257Z,0.00
2019-05-25T00:29:17.257Z,0.00
2019-05-25T00:30:17.243Z,0.00
2019-05-25T00:31:17.237Z,0.00
2019-05-25T00:32:17.232Z,0.00
2019-05-25T00:33:17.223Z,0.00
2019-05-25T00:34:17.217Z,0.00
2019-05-25T00:35:17.211Z,0.00
2019-05-25T00:36:17.205Z,0.00
2019-05-25T00:37:17.247Z,0.00
2019-05-25T00:38:17.197Z,0.00
2019-05-25T00:39:17.186Z,0.00
2019-05-25T00:40:17.176Z,0.00
2019-05-25T00:41:17.176Z,0.00
2019-05-25T00:42:17.167Z,0.00
2019-05-25T00:43:17.159Z,0.00
2019-05-25T00:44:17.149Z,0.00
2019-05-25T00:45:17.145Z,0.00
2019-05-25T00:46:17.138Z,0.00
2019-05-25T00:47:17.133Z,0.00
2019-05-25T00:48:17.127Z,0.00
2019-05-25T00:49:17.119Z,0.00
2019-05-25T00:50:17.115Z,0.00
2019-05-25T00:51:17.112Z,0.00
2019-05-25T00:52:17.115Z,0.00
2019-05-25T00:53:17.099Z,0.00
2019-05-25T00:54:27.416Z,0.00
2019-05-25T00:55:44.872Z,0.00
2019-05-25T00:56:44.870Z,0.00
2019-05-25T00:57:44.861Z,0.00
2019-05-25T00:58:44.852Z,0.00
2019-05-25T00:59:44.847Z,0.00
2019-05-25T01:00:44.842Z,0.00
2019-05-25T01:01:44.839Z,0.00
2019-05-25T01:02:44.896Z,0.00
2019-05-25T01:03:44.818Z,0.00
2019-05-25T01:04:44.813Z,0.00
2019-05-25T01:05:44.804Z,0.00
2019-05-25T01:06:44.800Z,0.00
2019-05-25T01:07:44.794Z,0.00
2019-05-25T01:08:44.787Z,0.00
2019-05-25T01:09:44.781Z,0.00
2019-05-25T01:10:44.774Z,0.00
2019-05-25T01:11:44.770Z,0.00
2019-05-25T01:12:44.767Z,0.00
2019-05-25T01:13:44.761Z,0.00
2019-05-25T01:14:44.761Z,0.00
2019-05-25T01:15:44.753Z,0.00
2019-05-25T01:16:44.810Z,0.00
2019-05-25T01:17:44.743Z,0.00
2019-05-25T01:18:44.734Z,0.00
2019-05-25T01:19:44.727Z,0.00
2019-05-25T01:20:44.720Z,0.00
2019-05-25T01:21:44.712Z,0.00
2019-05-25T01:22:44.708Z,0.00
2019-05-25T01:23:44.697Z,0.00
2019-05-25T01:24:45.102Z,0.00
2019-05-25T01:25:44.684Z,0.00
2019-05-25T01:26:44.716Z,0.00
2019-05-25T01:27:44.672Z,0.00
2019-05-25T01:28:44.663Z,0.00
2019-05-25T01:29:44.662Z,0.00
2019-05-25T01:30:44.701Z,0.00
2019-05-25T01:31:44.645Z,0.00
2019-05-25T01:32:44.639Z,0.00
2019-05-25T01:33:44.633Z,0.00
2019-05-25T01:34:44.626Z,0.00
2019-05-25T01:35:44.626Z,0.00
2019-05-25T01:36:44.613Z,0.00
2019-05-25T01:37:48.259Z,0.00
2019-05-25T01:38:44.598Z,0.00
2019-05-25T01:39:44.596Z,0.00
2019-05-25T01:40:44.586Z,0.00
2019-05-25T01:41:44.582Z,0.00
2019-05-25T01:42:44.623Z,0.00
2019-05-25T01:43:44.565Z,0.00
2019-05-25T01:44:44.560Z,0.00
2019-05-25T01:45:44.554Z,0.00
2019-05-25T01:46:44.544Z,0.00
2019-05-25T01:47:44.548Z,0.00
2019-05-25T01:48:44.532Z,0.00
2019-05-25T01:49:44.525Z,0.00
2019-05-25T01:50:44.519Z,0.00
2019-05-25T01:51:44.512Z,0.00
2019-05-25T01:52:44.503Z,0.00
2019-05-25T01:53:44.497Z,0.00
2019-05-25T01:54:58.963Z,0.00
2019-05-25T01:56:12.209Z,0.00
2019-05-25T01:57:12.204Z,0.00
2019-05-25T01:58:12.195Z,0.00
2019-05-25T01:59:12.191Z,0.00
2019-05-25T02:00:12.186Z,0.00
2019-05-25T02:01:12.180Z,0.00
2019-05-25T02:02:12.176Z,0.00
2019-05-25T02:03:12.170Z,0.00
2019-05-25T02:04:12.189Z,0.00
2019-05-25T02:05:12.158Z,0.00
2019-05-25T02:06:12.149Z,0.00
2019-05-25T02:07:12.144Z,0.00
2019-05-25T02:08:12.135Z,0.00
2019-05-25T02:09:12.129Z,0.00
2019-05-25T02:10:12.121Z,0.00
2019-05-25T02:11:12.114Z,0.00
2019-05-25T02:12:12.111Z,0.00
2019-05-25T02:13:12.100Z,0.00
2019-05-25T02:14:12.095Z,0.00
2019-05-25T02:15:12.090Z,0.00
2019-05-25T02:16:12.080Z,0.00
2019-05-25T02:17:12.074Z,0.00
2019-05-25T02:18:12.120Z,0.00
2019-05-25T02:19:12.063Z,0.00
2019-05-25T02:20:12.059Z,0.00
2019-05-25T02:21:12.051Z,0.00
2019-05-25T02:22:12.059Z,0.00
2019-05-25T02:23:12.040Z,0.00
2019-05-25T02:24:12.034Z,0.00
2019-05-25T02:25:18.038Z,0.00
2019-05-25T02:26:14.020Z,0.00
2019-05-25T02:27:12.015Z,0.00
2019-05-25T02:28:12.008Z,0.00
2019-05-25T02:29:12.005Z,0.00
2019-05-25T02:30:12.072Z,0.00
2019-05-25T02:31:12.010Z,0.00
2019-05-25T02:32:12.005Z,0.00
2019-05-25T02:33:11.997Z,0.00
2019-05-25T02:34:11.989Z,0.00
2019-05-25T02:35:11.982Z,0.00
2019-05-25T02:36:12.024Z,0.00
2019-05-25T02:37:11.969Z,0.00
2019-05-25T02:38:11.985Z,0.00
2019-05-25T02:39:11.979Z,0.00
2019-05-25T02:40:11.975Z,0.00
2019-05-25T02:41:11.966Z,0.00
2019-05-25T02:42:11.962Z,0.00
2019-05-25T02:43:11.955Z,0.00
2019-05-25T02:44:11.948Z,0.00
2019-05-25T02:45:11.941Z,0.00
2019-05-25T02:46:11.936Z,0.00
2019-05-25T02:47:11.930Z,0.00
2019-05-25T02:48:11.925Z,0.00
2019-05-25T02:49:11.916Z,0.00
2019-05-25T02:50:11.909Z,0.00
2019-05-25T02:51:11.909Z,0.00
2019-05-25T02:52:11.904Z,0.00
2019-05-25T02:53:11.891Z,0.00
2019-05-25T02:54:11.887Z,0.00
2019-05-25T02:55:11.875Z,0.00
2019-05-25T02:56:11.873Z,0.00
2019-05-25T02:57:11.863Z,0.00
2019-05-25T02:58:11.859Z,0.00
2019-05-25T02:59:11.854Z,0.00
2019-05-25T03:00:11.902Z,0.00
2019-05-25T03:01:11.837Z,0.00
2019-05-25T03:02:11.833Z,0.00
2019-05-25T03:03:11.825Z,0.00
2019-05-25T03:04:11.817Z,0.00
2019-05-25T03:05:11.812Z,0.00
2019-05-25T03:06:12.081Z,0.00
2019-05-25T03:07:11.800Z,0.00
2019-05-25T03:08:11.793Z,0.00
2019-05-25T03:09:11.786Z,0.00
2019-05-25T03:10:11.791Z,4.00
2019-05-25T03:11:11.776Z,4.00
2019-05-25T03:12:11.768Z,4.00
2019-05-25T03:13:11.763Z,4.00
2019-05-25T03:14:11.759Z,0.00
2019-05-25T03:15:11.747Z,0.00
2019-05-25T03:16:11.741Z,4.00
2019-05-25T03:17:11.735Z,4.00
2019-05-25T03:18:11.728Z,4.00
2019-05-25T03:19:11.721Z,8.00
2019-05-25T03:20:11.715Z,4.00
2019-05-25T03:21:11.708Z,8.00
2019-05-25T03:22:11.702Z,4.00
2019-05-25T03:23:11.696Z,8.00
2019-05-25T03:24:11.690Z,8.00
2019-05-25T03:25:11.683Z,12.00
2019-05-25T03:26:11.672Z,12.00
2019-05-25T03:27:11.669Z,16.00
2019-05-25T03:28:11.659Z,20.00
2019-05-25T03:29:11.653Z,24.00
2019-05-25T03:30:11.665Z,24.00
2019-05-25T03:31:11.640Z,32.00
2019-05-25T03:32:11.639Z,36.00
2019-05-25T03:33:11.638Z,40.00
2019-05-25T03:34:11.624Z,44.00
2019-05-25T03:35:11.623Z,48.00
2019-05-25T03:36:11.610Z,56.00
2019-05-25T03:37:11.604Z,56.00
2019-05-25T03:38:11.615Z,64.00
2019-05-25T03:39:11.587Z,68.00
2019-05-25T03:40:11.582Z,72.00
2019-05-25T03:41:11.573Z,76.00
2019-05-25T03:42:11.569Z,80.00
2019-05-25T03:43:11.560Z,84.00
2019-05-25T03:44:11.554Z,88.00
2019-05-25T03:45:11.551Z,96.00
2019-05-25T03:46:11.547Z,100.00
2019-05-25T03:47:11.558Z,108.00
2019-05-25T03:48:11.547Z,108.00
2019-05-25T03:49:11.539Z,116.00
2019-05-25T03:50:11.535Z,116.00
2019-05-25T03:51:11.527Z,120.00
2019-05-25T03:52:11.565Z,124.00
2019-05-25T03:53:11.561Z,128.00
2019-05-25T03:54:11.531Z,136.00
2019-05-25T03:55:11.524Z,144.00
2019-05-25T03:56:11.518Z,148.00
2019-05-25T03:57:11.514Z,156.00
2019-05-25T03:58:11.508Z,160.00
2019-05-25T03:59:11.497Z,164.00
2019-05-25T04:00:11.491Z,172.00
2019-05-25T04:01:11.532Z,180.00
2019-05-25T04:02:11.496Z,192.00
2019-05-25T04:03:11.473Z,208.00
2019-05-25T04:04:11.470Z,220.00
2019-05-25T04:05:11.461Z,232.00
2019-05-25T04:06:11.456Z,240.00
2019-05-25T04:07:11.447Z,256.00
2019-05-25T04:08:11.443Z,268.00
2019-05-25T04:09:11.436Z,280.00
2019-05-25T04:10:11.433Z,288.00
2019-05-25T04:11:11.420Z,292.00
2019-05-25T04:12:11.418Z,296.00
2019-05-25T04:13:11.408Z,300.00
2019-05-25T04:14:11.399Z,308.00
2019-05-25T04:15:11.399Z,316.00
2019-05-25T04:16:11.389Z,324.00
2019-05-25T04:17:11.377Z,328.00
2019-05-25T04:18:11.373Z,328.00
2019-05-25T04:19:11.365Z,328.00
2019-05-25T04:20:11.361Z,332.00
2019-05-25T04:21:11.364Z,348.00
2019-05-25T04:22:11.346Z,364.00
2019-05-25T04:23:11.342Z,384.00
2019-05-25T04:24:11.333Z,408.00
2019-05-25T04:25:11.340Z,432.00
2019-05-25T04:26:22.118Z,456.00
2019-05-25T04:27:39.093Z,504.00
2019-05-25T04:28:39.146Z,528.00
2019-05-25T04:29:39.080Z,560.00
2019-05-25T04:30:39.084Z,596.00
2019-05-25T04:31:39.064Z,644.00
2019-05-25T04:32:39.061Z,704.00
2019-05-25T04:33:39.051Z,756.00
2019-05-25T04:34:39.044Z,804.00
2019-05-25T04:35:39.037Z,828.00
2019-05-25T04:36:39.032Z,840.00
2019-05-25T04:37:39.026Z,860.00
2019-05-25T04:38:39.065Z,872.00
2019-05-25T04:39:39.012Z,880.00
2019-05-25T04:40:39.008Z,900.00
2019-05-25T04:41:39.001Z,928.00
2019-05-25T04:42:38.995Z,980.00
2019-05-25T04:43:38.988Z,1044.00
2019-05-25T04:44:38.982Z,1112.00
2019-05-25T04:45:38.988Z,1188.00
2019-05-25T04:46:38.971Z,1284.00
2019-05-25T04:47:39.020Z,1400.00
2019-05-25T04:48:38.958Z,1476.00
2019-05-25T04:49:38.952Z,1536.00
2019-05-25T04:50:38.942Z,1592.00
2019-05-25T04:51:38.935Z,1648.00
2019-05-25T04:52:41.440Z,1700.00
2019-05-25T04:53:38.993Z,1756.00
2019-05-25T04:54:38.936Z,1812.00
2019-05-25T04:55:38.929Z,1844.00
2019-05-25T04:56:40.204Z,1876.00
2019-05-25T04:57:38.912Z,1924.00
2019-05-25T04:58:38.907Z,1980.00
2019-05-25T04:59:38.955Z,2060.00
2019-05-25T05:00:38.903Z,2160.00
2019-05-25T05:01:38.888Z,2292.00
2019-05-25T05:02:38.881Z,2428.00
2019-05-25T05:03:38.873Z,2484.00
2019-05-25T05:04:38.866Z,2432.00
2019-05-25T05:05:38.861Z,2460.00
2019-05-25T05:06:38.857Z,2404.00
2019-05-25T05:07:38.848Z,2368.00
2019-05-25T05:08:38.840Z,2120.00
2019-05-25T05:09:38.840Z,1908.00
2019-05-25T05:10:38.828Z,1720.00
2019-05-25T05:11:38.826Z,1544.00
2019-05-25T05:12:38.819Z,1384.00
2019-05-25T05:13:38.810Z,1236.00
2019-05-25T05:14:38.802Z,1120.00
2019-05-25T05:15:38.797Z,1028.00
2019-05-25T05:16:38.791Z,956.00
2019-05-25T05:17:38.838Z,888.00
2019-05-25T05:18:38.780Z,864.00
2019-05-25T05:19:38.778Z,860.00
2019-05-25T05:20:38.766Z,852.00
2019-05-25T05:21:38.785Z,840.00
2019-05-25T05:22:38.750Z,848.00
2019-05-25T05:23:38.770Z,880.00
2019-05-25T05:24:38.763Z,916.00
2019-05-25T05:25:38.756Z,976.00
2019-05-25T05:26:52.810Z,1052.00
2019-05-25T05:28:06.486Z,1128.00
2019-05-25T05:29:06.538Z,1144.00
2019-05-25T05:30:06.476Z,1204.00
2019-05-25T05:31:20.977Z,1256.00
2019-05-25T05:32:33.689Z,1280.00
2019-05-25T05:33:33.691Z,1320.00
2019-05-25T05:34:33.681Z,1340.00
2019-05-25T05:35:33.673Z,1356.00
2019-05-25T05:36:33.667Z,1356.00
2019-05-25T05:37:33.659Z,1324.00
2019-05-25T05:38:33.650Z,1256.00
2019-05-25T05:39:33.646Z,1196.00
2019-05-25T05:40:33.639Z,1152.00
2019-05-25T05:41:33.633Z,1152.00
2019-05-25T05:42:33.625Z,1188.00
2019-05-25T05:43:33.616Z,1232.00
2019-05-25T05:44:33.608Z,1296.00
2019-05-25T05:45:33.601Z,1380.00
2019-05-25T05:46:33.644Z,1480.00
2019-05-25T05:47:33.586Z,1576.00
2019-05-25T05:48:33.618Z,1680.00
2019-05-25T05:49:33.575Z,1704.00
2019-05-25T05:50:33.564Z,1700.00
2019-05-25T05:51:33.559Z,1824.00
2019-05-25T05:52:33.603Z,1952.00
2019-05-25T05:53:33.545Z,2172.00
2019-05-25T05:54:33.540Z,2388.00
2019-05-25T05:55:33.534Z,2648.00
2019-05-25T05:56:33.532Z,2932.00
2019-05-25T05:57:33.520Z,3172.00
2019-05-25T05:58:33.514Z,3292.00
2019-05-25T05:59:33.506Z,3508.00
2019-05-25T06:00:33.500Z,3652.00
2019-05-25T06:01:33.509Z,3656.00
2019-05-25T06:02:33.487Z,3576.00
2019-05-25T06:03:33.479Z,3716.00
2019-05-25T06:04:33.472Z,3384.00
2019-05-25T06:05:33.469Z,3276.00
2019-05-25T06:06:33.460Z,3440.00
2019-05-25T06:07:33.478Z,3632.00
2019-05-25T06:08:33.471Z,3764.00
2019-05-25T06:09:33.468Z,3736.00
2019-05-25T06:10:33.460Z,3744.00
2019-05-25T06:11:33.453Z,3292.00
2019-05-25T06:12:33.448Z,3076.00
2019-05-25T06:13:33.439Z,2976.00
2019-05-25T06:14:33.436Z,2868.00
2019-05-25T06:15:33.429Z,2832.00
2019-05-25T06:16:33.423Z,2784.00
2019-05-25T06:17:33.426Z,2740.00
2019-05-25T06:18:33.410Z,2776.00
2019-05-25T06:19:33.404Z,2784.00
2019-05-25T06:20:33.405Z,2832.00
2019-05-25T06:21:33.439Z,2940.00
2019-05-25T06:22:33.385Z,3136.00
2019-05-25T06:23:33.379Z,3320.00
2019-05-25T06:24:33.373Z,3356.00
2019-05-25T06:25:33.366Z,3496.00
2019-05-25T06:26:33.360Z,4060.00
2019-05-25T06:27:33.353Z,3944.00
2019-05-25T06:28:33.347Z,4184.00
2019-05-25T06:29:33.340Z,4452.00
2019-05-25T06:30:33.342Z,4876.00
2019-05-25T06:31:33.330Z,5444.00
2019-05-25T06:32:33.321Z,6688.00
2019-05-25T06:33:33.318Z,6804.00
2019-05-25T06:34:33.370Z,6648.00
2019-05-25T06:35:33.304Z,6444.00
2019-05-25T06:36:33.299Z,6260.00
2019-05-25T06:37:33.290Z,7572.00
2019-05-25T06:38:33.284Z,8516.00
2019-05-25T06:39:33.276Z,9136.00
2019-05-25T06:40:33.272Z,9276.00
2019-05-25T06:41:33.266Z,8920.00
2019-05-25T06:42:33.257Z,8344.00
2019-05-25T06:43:33.249Z,7692.00
2019-05-25T06:44:33.244Z,7028.00
2019-05-25T06:45:33.240Z,6232.00
2019-05-25T06:46:33.282Z,5548.00
2019-05-25T06:47:33.225Z,5640.00
2019-05-25T06:48:33.218Z,5468.00
2019-05-25T06:49:33.235Z,5948.00
2019-05-25T06:50:33.248Z,6112.00
2019-05-25T06:51:33.241Z,6172.00
2019-05-25T06:52:33.235Z,6616.00
2019-05-25T06:53:33.227Z,7264.00
2019-05-25T06:54:33.222Z,7936.00
2019-05-25T06:55:33.214Z,8648.00
2019-05-25T06:56:33.209Z,9328.00
2019-05-25T06:57:42.552Z,10464.00
2019-05-25T06:59:00.998Z,9348.00
2019-05-25T07:00:00.996Z,9620.00
2019-05-25T07:01:00.995Z,10976.00
2019-05-25T07:02:00.985Z,15228.00
2019-05-25T07:03:00.979Z,19680.00
2019-05-25T07:04:00.973Z,20832.00
2019-05-25T07:05:00.965Z,21920.00
2019-05-25T07:06:00.960Z,11464.00
2019-05-25T07:07:00.951Z,11968.00
2019-05-25T07:08:00.946Z,12432.00
2019-05-25T07:09:00.940Z,9304.00
2019-05-25T07:10:00.982Z,10544.00
2019-05-25T07:11:00.927Z,14080.00
2019-05-25T07:12:00.918Z,18336.00
2019-05-25T07:13:00.913Z,18688.00
2019-05-25T07:14:00.912Z,14600.00
2019-05-25T07:15:00.900Z,16896.00
2019-05-25T07:16:00.894Z,17760.00
2019-05-25T07:17:00.891Z,19328.00
2019-05-25T07:18:00.883Z,20960.00
2019-05-25T07:19:00.878Z,22432.00
2019-05-25T07:20:00.873Z,23296.00
2019-05-25T07:21:00.865Z,25472.00
2019-05-25T07:22:00.861Z,28736.00
2019-05-25T07:23:00.908Z,28672.00
2019-05-25T07:24:00.847Z,28448.00
2019-05-25T07:25:00.841Z,26048.00
2019-05-25T07:26:00.842Z,20576.00
2019-05-25T07:27:00.828Z,18336.00
2019-05-25T07:28:00.822Z,24576.00
2019-05-25T07:29:00.816Z,29984.00
2019-05-25T07:30:00.809Z,11368.00
2019-05-25T07:31:00.800Z,11896.00
2019-05-25T07:32:00.793Z,10708.00
2019-05-25T07:33:00.788Z,15668.00
2019-05-25T07:34:00.835Z,13752.00
2019-05-25T07:35:00.777Z,31712.00
2019-05-25T07:36:00.775Z,33696.00
2019-05-25T07:37:00.764Z,33184.00
2019-05-25T07:38:00.756Z,33024.00
2019-05-25T07:39:00.750Z,33824.00
2019-05-25T07:40:00.741Z,35456.00
2019-05-25T07:41:00.735Z,35424.00
2019-05-25T07:42:00.801Z,37056.00
2019-05-25T07:43:00.720Z,36736.00
2019-05-25T07:44:00.717Z,34976.00
2019-05-25T07:45:00.710Z,29664.00
2019-05-25T07:46:00.703Z,15128.00
2019-05-25T07:47:00.697Z,12512.00
2019-05-25T07:48:00.691Z,15708.00
2019-05-25T07:49:00.681Z,25408.00
2019-05-25T07:50:00.679Z,10160.00
2019-05-25T07:51:00.671Z,16992.00
2019-05-25T07:52:02.823Z,31904.00
2019-05-25T07:53:00.661Z,33376.00
2019-05-25T07:54:00.649Z,33408.00
2019-05-25T07:55:00.643Z,37088.00
2019-05-25T07:56:00.636Z,36800.00
2019-05-25T07:57:00.631Z,35392.00
2019-05-25T07:58:15.836Z,37760.00
2019-05-25T07:59:28.345Z,39680.00
2019-05-25T08:00:28.340Z,39296.00
2019-05-25T08:01:28.335Z,39488.00
2019-05-25T08:02:28.327Z,39648.00
2019-05-25T08:03:28.322Z,39008.00
2019-05-25T08:04:28.317Z,38976.00
2019-05-25T08:05:28.312Z,38688.00
2019-05-25T08:06:28.304Z,37376.00
2019-05-25T08:07:56.084Z,33120.00
2019-05-25T08:08:56.121Z,24704.00
2019-05-25T08:09:56.012Z,40384.00
2019-05-25T08:10:56.007Z,40224.00
2019-05-25T08:11:56.008Z,39840.00
2019-05-25T08:12:55.998Z,39040.00
2019-05-25T08:13:55.988Z,39136.00
2019-05-25T08:14:55.982Z,42368.00
2019-05-25T08:15:55.974Z,43968.00
2019-05-25T08:16:55.969Z,44832.00
2019-05-25T08:17:55.960Z,44832.00
2019-05-25T08:18:55.958Z,44128.00
2019-05-25T08:19:55.966Z,44704.00
2019-05-25T08:20:55.942Z,45664.00
2019-05-25T08:21:55.940Z,46144.00
2019-05-25T08:22:55.928Z,45824.00
2019-05-25T08:23:55.921Z,45632.00
2019-05-25T08:24:55.916Z,46816.00
2019-05-25T08:25:55.911Z,46976.00
2019-05-25T08:26:55.906Z,47424.00
2019-05-25T08:27:55.900Z,47552.00
2019-05-25T08:28:55.899Z,47264.00
2019-05-25T08:29:55.893Z,47936.00
2019-05-25T08:30:55.888Z,48160.00
2019-05-25T08:31:55.925Z,48800.00
2019-05-25T08:32:55.920Z,49056.00
2019-05-25T08:33:55.864Z,49216.00
2019-05-25T08:34:55.858Z,48512.00
2019-05-25T08:35:55.849Z,47328.00
2019-05-25T08:36:55.847Z,47584.00
2019-05-25T08:37:55.842Z,49920.00
2019-05-25T08:38:55.882Z,50048.00
2019-05-25T08:39:55.827Z,50048.00
2019-05-25T08:40:55.822Z,49984.00
2019-05-25T08:41:55.815Z,48736.00
2019-05-25T08:42:55.808Z,49088.00
2019-05-25T08:43:55.801Z,50336.00
2019-05-25T08:44:55.796Z,51008.00
2019-05-25T08:45:55.790Z,51296.00
2019-05-25T08:46:55.810Z,50912.00
2019-05-25T08:47:57.163Z,51360.00
2019-05-25T08:48:55.770Z,50848.00
2019-05-25T08:49:55.768Z,50944.00
2019-05-25T08:50:59.375Z,51872.00
2019-05-25T08:51:55.756Z,51776.00
2019-05-25T08:52:55.749Z,51520.00
2019-05-25T08:53:55.782Z,51776.00
2019-05-25T08:54:56.727Z,52832.00
2019-05-25T08:55:55.752Z,51520.00
2019-05-25T08:56:55.871Z,51232.00
2019-05-25T08:57:55.738Z,50176.00
2019-05-25T08:58:55.837Z,51840.00
2019-05-25T08:59:55.725Z,53888.00
2019-05-25T09:00:55.716Z,55808.00
2019-05-25T09:01:55.713Z,61088.00
2019-05-25T09:02:55.713Z,57344.00
2019-05-25T09:03:55.700Z,53824.00
2019-05-25T09:04:55.695Z,42368.00
2019-05-25T09:05:55.688Z,40832.00
2019-05-25T09:06:55.680Z,39008.00
2019-05-25T09:07:55.755Z,52448.00
2019-05-25T09:08:55.721Z,30624.00
2019-05-25T09:09:55.663Z,30592.00
2019-05-25T09:10:55.658Z,30208.00
2019-05-25T09:11:55.648Z,31232.00
2019-05-25T09:12:55.646Z,28480.00
2019-05-25T09:13:55.641Z,36960.00
2019-05-25T09:14:55.637Z,36512.00
2019-05-25T09:15:55.649Z,52672.00
2019-05-25T09:16:55.624Z,26688.00
2019-05-25T09:17:55.615Z,29120.00
2019-05-25T09:18:55.612Z,26624.00
2019-05-25T09:19:55.605Z,33120.00
2019-05-25T09:20:55.608Z,43680.00
2019-05-25T09:22:02.410Z,24512.00
2019-05-25T09:23:23.326Z,39136.00
2019-05-25T09:24:23.323Z,49184.00
2019-05-25T09:25:23.317Z,51040.00
2019-05-25T09:26:23.313Z,51680.00
2019-05-25T09:27:23.308Z,54336.00
2019-05-25T09:28:23.299Z,53888.00
2019-05-25T09:29:23.296Z,42112.00
2019-05-25T09:30:23.288Z,34176.00
2019-05-25T09:31:23.283Z,23392.00
2019-05-25T09:32:23.275Z,25088.00
2019-05-25T09:33:23.275Z,12956.00
2019-05-25T09:34:23.264Z,11068.00
2019-05-25T09:35:23.260Z,12252.00
2019-05-25T09:36:23.253Z,12568.00
2019-05-25T09:37:23.253Z,20864.00
2019-05-25T09:38:23.243Z,49408.00
2019-05-25T09:39:23.234Z,54304.00
2019-05-25T09:40:23.232Z,55136.00
2019-05-25T09:41:23.222Z,43840.00
2019-05-25T09:42:23.217Z,49440.00
2019-05-25T09:43:23.212Z,55072.00
2019-05-25T09:44:23.256Z,57312.00
2019-05-25T09:45:23.198Z,55840.00
2019-05-25T09:46:23.194Z,55968.00
2019-05-25T09:47:23.188Z,54816.00
2019-05-25T09:48:23.197Z,53632.00
2019-05-25T09:49:23.182Z,53248.00
2019-05-25T09:50:23.175Z,54880.00
2019-05-25T09:51:23.169Z,50880.00
2019-05-25T09:52:23.163Z,30624.00
2019-05-25T09:53:23.163Z,22144.00
2019-05-25T09:54:23.157Z,16980.00
2019-05-25T09:55:23.153Z,43840.00
2019-05-25T09:56:23.144Z,43424.00
2019-05-25T09:57:23.139Z,52320.00
2019-05-25T09:58:23.131Z,51808.00
2019-05-25T09:59:23.128Z,44640.00
2019-05-25T10:00:23.122Z,29248.00
2019-05-25T10:01:23.117Z,44160.00
2019-05-25T10:02:23.162Z,56032.00
2019-05-25T10:03:23.100Z,54784.00
2019-05-25T10:04:23.096Z,38368.00
2019-05-25T10:05:23.123Z,54368.00
2019-05-25T10:06:23.083Z,56544.00
2019-05-25T10:07:23.081Z,58080.00
2019-05-25T10:08:23.083Z,58400.00
2019-05-25T10:09:23.076Z,55168.00
2019-05-25T10:10:23.068Z,53376.00
2019-05-25T10:11:23.062Z,47168.00
2019-05-25T10:12:23.057Z,53568.00
2019-05-25T10:13:23.054Z,41952.00
2019-05-25T10:14:23.045Z,44576.00
2019-05-25T10:15:23.040Z,37792.00
2019-05-25T10:16:23.036Z,29888.00
2019-05-25T10:17:23.032Z,50656.00
2019-05-25T10:18:23.027Z,39616.00
2019-05-25T10:19:23.021Z,50208.00
2019-05-25T10:20:23.067Z,31264.00
2019-05-25T10:21:23.013Z,22784.00
2019-05-25T10:22:23.007Z,23296.00
2019-05-25T10:23:23.001Z,37504.00
2019-05-25T10:24:22.997Z,53792.00
2019-05-25T10:25:22.990Z,50432.00
2019-05-25T10:26:23.275Z,50464.00
2019-05-25T10:27:22.977Z,28960.00
2019-05-25T10:28:22.974Z,35904.00
2019-05-25T10:29:36.120Z,47360.00
2019-05-25T10:30:24.960Z,50624.00
2019-05-25T10:31:22.958Z,51520.00
2019-05-25T10:32:22.948Z,49568.00
2019-05-25T10:33:22.945Z,50112.00
2019-05-25T10:34:22.936Z,50368.00
2019-05-25T10:35:22.932Z,50368.00
2019-05-25T10:36:22.928Z,49568.00
2019-05-25T10:37:22.924Z,47840.00
2019-05-25T10:38:22.919Z,48352.00
2019-05-25T10:39:22.914Z,48544.00
2019-05-25T10:40:22.906Z,47520.00
2019-05-25T10:41:22.898Z,45344.00
2019-05-25T10:42:22.913Z,42976.00
2019-05-25T10:43:22.909Z,45920.00
2019-05-25T10:44:22.897Z,46080.00
2019-05-25T10:45:22.903Z,45376.00
2019-05-25T10:46:22.884Z,44832.00
2019-05-25T10:47:22.888Z,44544.00
2019-05-25T10:48:22.917Z,43488.00
2019-05-25T10:49:22.870Z,43008.00
2019-05-25T10:50:22.864Z,42432.00
2019-05-25T10:51:22.902Z,40992.00
2019-05-25T10:52:22.870Z,41056.00
2019-05-25T10:53:22.865Z,41440.00
2019-05-25T10:54:22.857Z,39296.00
2019-05-25T10:55:22.852Z,37760.00
2019-05-25T10:56:22.896Z,36576.00
2019-05-25T10:57:22.852Z,34784.00
2019-05-25T10:58:22.847Z,34272.00
2019-05-25T10:59:22.840Z,33120.00
2019-05-25T11:00:22.838Z,21792.00
2019-05-25T11:01:22.827Z,9580.00
2019-05-25T11:02:22.824Z,7540.00
2019-05-25T11:03:22.815Z,7228.00
2019-05-25T11:04:22.810Z,7028.00
2019-05-25T11:05:22.802Z,6928.00
2019-05-25T11:06:22.795Z,6852.00
2019-05-25T11:07:22.790Z,6716.00
2019-05-25T11:08:22.784Z,6624.00
2019-05-25T11:09:22.792Z,6556.00
2019-05-25T11:10:22.771Z,6540.00
2019-05-25T11:11:22.767Z,6524.00
2019-05-25T11:12:25.891Z,6448.00
2019-05-25T11:13:22.753Z,6320.00
2019-05-25T11:14:22.744Z,6212.00
2019-05-25T11:15:22.742Z,6108.00
2019-05-25T11:16:22.734Z,5992.00
2019-05-25T11:17:22.728Z,5832.00
2019-05-25T11:18:22.721Z,5664.00
2019-05-25T11:19:24.356Z,5528.00
2019-05-25T11:20:22.708Z,5340.00
2019-05-25T11:21:22.700Z,5160.00
2019-05-25T11:22:22.712Z,5012.00
2019-05-25T11:23:22.688Z,4952.00
2019-05-25T11:24:22.689Z,4972.00
2019-05-25T11:25:22.680Z,4980.00
2019-05-25T11:26:22.670Z,5064.00
2019-05-25T11:27:22.664Z,5140.00
2019-05-25T11:28:22.662Z,5236.00
2019-05-25T11:29:22.650Z,5224.00
2019-05-25T11:30:22.643Z,5172.00
2019-05-25T11:31:22.639Z,5112.00
2019-05-25T11:32:22.629Z,4996.00
2019-05-25T11:33:22.627Z,4928.00
2019-05-25T11:34:22.621Z,4908.00
2019-05-25T11:35:22.613Z,4920.00
2019-05-25T11:36:22.606Z,4968.00
2019-05-25T11:37:22.601Z,4884.00
2019-05-25T11:38:22.600Z,4792.00
2019-05-25T11:39:22.588Z,4696.00
2019-05-25T11:40:22.585Z,4576.00
2019-05-25T11:41:22.579Z,4488.00
2019-05-25T11:42:22.571Z,4408.00
2019-05-25T11:43:22.566Z,4340.00
2019-05-25T11:44:22.562Z,4288.00
2019-05-25T11:45:22.555Z,4268.00
2019-05-25T11:46:22.547Z,4252.00
2019-05-25T11:47:22.545Z,4216.00
2019-05-25T11:48:22.532Z,4192.00
2019-05-25T11:49:23.121Z,4156.00
2019-05-25T11:50:22.556Z,4056.00
2019-05-25T11:51:22.514Z,3948.00
2019-05-25T11:53:22.502Z,3824.00
2019-05-25T11:54:22.493Z,3728.00
2019-05-25T11:56:22.487Z,3580.00
2019-05-25T11:57:22.477Z,3504.00
2019-05-25T11:58:22.468Z,3444.00
2019-05-25T11:59:22.465Z,3344.00
2019-05-25T12:00:25.430Z,3292.00
2019-05-25T12:01:22.460Z,3244.00
2019-05-25T12:02:24.448Z,3164.00
2019-05-25T12:03:22.441Z,3100.00
2019-05-25T12:04:22.435Z,2996.00
2019-05-25T12:05:22.426Z,2940.00
2019-05-25T12:06:22.420Z,2828.00
2019-05-25T12:07:22.412Z,2740.00
2019-05-25T12:09:22.399Z,2608.00
2019-05-25T12:10:22.394Z,2548.00
2019-05-25T12:11:22.385Z,2504.00
2019-05-25T12:12:22.381Z,2456.00
2019-05-25T12:13:22.373Z,2404.00
2019-05-25T12:14:22.366Z,2356.00
2019-05-25T12:15:22.360Z,2344.00
2019-05-25T12:16:50.131Z,2328.00
2019-05-25T12:17:50.127Z,2308.00
2019-05-25T12:18:50.119Z,2280.00
2019-05-25T12:19:50.114Z,2252.00
2019-05-25T12:20:50.107Z,2204.00
2019-05-25T12:21:50.102Z,2168.00
2019-05-25T12:22:50.383Z,2152.00
2019-05-25T12:23:50.100Z,2152.00
2019-05-25T12:24:50.085Z,2128.00
2019-05-25T12:25:50.128Z,2104.00
2019-05-25T12:26:50.069Z,2092.00
2019-05-25T12:27:50.062Z,2060.00